Time;durP1;ratioP1;P1;durP2;ratioP2;P2;SDS_P1;SDS_P2;PMS_P1;PMS_P2;Temp;Humidity;BMP_temperature;BMP_pressure;BME280_temperature;BME280_humidity;BME280_pressure;Samples;Min_cycle;Max_cycle;Signal;HPM_P1;HPM_P2
2022/04/25 00:02:09;;;;;;;0.10;0.10;;;;;;;12.78;56.63;101121.25;5055199;28;20037;-77
2022/04/25 00:04:35;;;;;;;0.10;0.10;;;;;;;12.77;55.94;101117.75;5055772;28;20059;-78
2022/04/25 00:07:02;;;;;;;0.08;0.08;;;;;;;12.77;56.27;101114.19;5058912;28;20108;-78
2022/04/25 00:09:28;;;;;;;0.00;0.00;;;;;;;12.78;56.34;101111.50;5058684;28;20407;-77
2022/04/25 00:11:54;;;;;;;0.00;0.00;;;;;;;12.75;56.52;101121.34;5057125;28;20035;-77
2022/04/25 00:14:20;;;;;;;0.10;0.10;;;;;;;12.73;56.57;101117.84;5057995;28;20772;-77
2022/04/25 00:16:47;;;;;;;0.00;0.00;;;;;;;12.72;57.62;101121.41;5057647;28;20043;-77
2022/04/25 00:19:13;;;;;;;0.10;0.10;;;;;;;12.70;56.86;101108.16;5056130;28;20402;-77
2022/04/25 00:21:39;;;;;;;0.00;0.00;;;;;;;12.69;56.10;101118.84;5053494;28;20552;-77
2022/04/25 00:24:05;;;;;;;0.00;0.00;;;;;;;12.69;55.40;101108.19;5058447;28;20045;-78
2022/04/25 00:26:31;;;;;;;0.10;0.10;;;;;;;12.69;55.93;101116.19;5056768;28;20063;-77
2022/04/25 00:28:57;;;;;;;0.00;0.00;;;;;;;12.68;56.70;101117.09;5059621;28;20151;-77
2022/04/25 00:31:24;;;;;;;0.05;0.05;;;;;;;12.65;56.69;101117.16;5062048;28;20103;-77
2022/04/25 00:33:50;;;;;;;0.10;0.10;;;;;;;12.62;56.25;101119.00;5055489;28;20029;-77
2022/04/25 00:36:16;;;;;;;0.10;0.10;;;;;;;12.60;56.44;101115.47;5053604;28;20548;-77
2022/04/25 00:38:42;;;;;;;0.10;0.10;;;;;;;12.60;56.10;101122.59;5051951;28;20082;-77
2022/04/25 00:41:08;;;;;;;0.00;0.00;;;;;;;12.59;56.27;101116.38;5052848;28;20028;-77
2022/04/25 00:43:34;;;;;;;0.10;0.10;;;;;;;12.55;56.40;101116.53;5052980;28;20111;-78
2022/04/25 00:46:02;;;;;;;0.10;0.10;;;;;;;12.56;57.13;101105.84;5052422;28;20035;-78
2022/04/25 00:48:28;;;;;;;0.20;0.20;;;;;;;12.60;55.68;101110.16;5052501;28;20031;-78
2022/04/25 00:50:54;;;;;;;0.10;0.10;;;;;;;12.63;55.84;101106.56;5052758;28;20568;-78
2022/04/25 00:53:20;;;;;;;0.38;0.38;;;;;;;12.66;56.20;101110.91;5053146;28;20075;-77
2022/04/25 00:55:47;;;;;;;0.00;0.00;;;;;;;12.68;56.64;101103.78;5053926;28;20100;-78
2022/04/25 00:58:13;;;;;;;0.10;0.10;;;;;;;12.72;56.27;101116.09;5052896;28;20029;-77
2022/04/25 01:00:40;;;;;;;0.10;0.10;;;;;;;12.74;57.38;101109.81;5052535;28;20044;-77
2022/04/25 01:03:06;;;;;;;0.10;0.10;;;;;;;12.76;56.15;101104.47;5051873;28;20525;-77
2022/04/25 01:05:33;;;;;;;0.10;0.10;;;;;;;12.77;56.68;101103.56;5053086;28;20490;-77
2022/04/25 01:07:59;;;;;;;0.98;0.98;;;;;;;12.82;55.87;101106.97;5060391;28;20025;-77
2022/04/25 01:10:26;;;;;;;0.30;0.30;;;;;;;12.84;56.21;101099.84;5051134;28;20074;-77
2022/04/25 01:12:52;;;;;;;0.10;0.10;;;;;;;12.88;56.81;101101.50;5050910;28;20025;-77
2022/04/25 01:15:18;;;;;;;0.22;0.22;;;;;;;12.93;55.56;101102.28;5051829;28;20032;-77
2022/04/25 01:17:44;;;;;;;0.15;0.15;;;;;;;12.98;55.87;101106.59;5052379;28;20047;-77
2022/04/25 01:20:10;;;;;;;0.52;0.52;;;;;;;13.02;55.97;101103.81;5054146;28;20037;-78
2022/04/25 01:28:14;;;;;;;0.00;0.00;;;;;;;13.14;55.63;101097.28;5109714;28;20115;-77
2022/04/25 01:30:40;;;;;;;0.10;0.10;;;;;;;13.18;55.18;101098.94;5107111;28;20034;-77
2022/04/25 01:33:06;;;;;;;0.00;0.00;;;;;;;13.18;55.11;101093.63;5103126;28;20032;-78
2022/04/25 01:35:33;;;;;;;0.10;0.10;;;;;;;13.22;55.75;101100.63;5081590;28;20028;-78
2022/04/25 01:37:59;;;;;;;0.00;0.00;;;;;;;13.26;55.60;101094.31;5087813;28;20409;-77
2022/04/25 01:40:25;;;;;;;0.10;0.10;;;;;;;13.29;55.76;101097.81;5086522;28;20058;-78
2022/04/25 01:42:51;;;;;;;0.10;0.10;;;;;;;13.31;55.41;101099.50;5084752;28;20037;-77
2022/04/25 01:45:17;;;;;;;0.00;0.00;;;;;;;13.33;55.01;101091.47;5080769;28;20107;-77
2022/04/25 01:47:46;;;;;;;0.10;0.10;;;;;;;13.35;55.52;101084.31;5085823;28;20055;-77
2022/04/25 01:50:12;;;;;;;0.43;0.15;;;;;;;13.37;55.11;101091.38;5084374;28;20459;-77
2022/04/25 01:52:38;;;;;;;0.10;0.10;;;;;;;13.41;55.03;101092.19;5087057;28;20513;-77
2022/04/25 01:55:04;;;;;;;0.10;0.10;;;;;;;13.42;55.50;101097.44;5080301;28;20032;-77
2022/04/25 01:57:31;;;;;;;0.03;0.03;;;;;;;13.42;54.85;101094.78;5080702;28;20088;-77
2022/04/25 01:59:57;;;;;;;0.28;0.28;;;;;;;13.43;55.14;101091.22;5087582;28;20032;-77
2022/04/25 02:02:24;;;;;;;0.10;0.10;;;;;;;13.44;54.79;101092.06;5084000;28;20021;-77
2022/04/25 02:04:50;;;;;;;0.10;0.10;;;;;;;13.45;55.03;101096.50;5086619;28;20036;-77
2022/04/25 02:07:16;;;;;;;0.13;0.13;;;;;;;13.42;54.54;101093.91;5084802;28;20044;-78
2022/04/25 02:09:43;;;;;;;0.05;0.05;;;;;;;13.44;55.35;101092.06;5082488;28;20024;-77
2022/04/25 02:12:09;;;;;;;0.08;0.08;;;;;;;13.46;55.25;101095.56;5084060;28;20028;-77
2022/04/25 02:14:35;;;;;;;0.10;0.10;;;;;;;13.49;55.09;101092.81;5086488;28;20032;-77
2022/04/25 02:17:02;;;;;;;0.00;0.00;;;;;;;13.49;54.62;101082.16;5089696;28;20038;-77
2022/04/25 02:19:29;;;;;;;0.10;0.10;;;;;;;13.52;54.96;101082.09;5097026;28;20389;-77
2022/04/25 02:21:56;;;;;;;0.10;0.10;;;;;;;13.49;54.87;101076.84;5085903;28;20046;-77
2022/04/25 02:24:23;;;;;;;0.20;0.20;;;;;;;13.51;55.31;101076.81;5086073;28;20028;-77
2022/04/25 02:26:49;;;;;;;0.00;0.00;;;;;;;13.51;54.68;101077.69;5082479;28;20040;-77
2022/04/25 02:29:16;;;;;;;0.10;0.10;;;;;;;13.51;55.31;101084.81;5088048;28;20101;-77
2022/04/25 02:31:42;;;;;;;0.10;0.10;;;;;;;13.51;55.35;101080.34;5083584;28;20518;-77
2022/04/25 02:34:09;;;;;;;0.03;0.03;;;;;;;13.56;54.36;101081.09;5088335;28;20032;-77
2022/04/25 02:36:35;;;;;;;0.05;0.05;;;;;;;13.57;54.76;101085.50;5068111;28;20092;-77
2022/04/25 02:39:02;;;;;;;0.40;0.40;;;;;;;13.63;55.08;101084.44;5067166;28;20028;-77
2022/04/25 02:41:29;;;;;;;0.10;0.10;;;;;;;13.68;54.59;101081.63;5071564;28;20040;-77
2022/04/25 02:43:55;;;;;;;0.20;0.20;;;;;;;13.70;55.06;101085.16;5073782;28;20032;-77
2022/04/25 02:46:21;;;;;;;0.05;0.05;;;;;;;13.71;55.26;101086.91;5073615;28;20033;-77
2022/04/25 02:48:47;;;;;;;0.20;0.20;;;;;;;13.68;56.00;101082.53;5074899;28;20112;-77
2022/04/25 02:51:15;;;;;;;0.10;0.10;;;;;;;13.68;55.70;101077.22;5074603;28;20036;-77
2022/04/25 02:53:42;;;;;;;0.00;0.00;;;;;;;13.74;55.41;101086.78;5066657;28;20021;-77
2022/04/25 02:56:09;;;;;;;0.00;0.00;;;;;;;13.72;55.24;101077.97;5069002;28;20048;-77
2022/04/25 02:58:38;;;;;;;0.10;0.10;;;;;;;13.71;55.51;101078.91;5060913;28;20041;-77
2022/04/25 03:01:05;;;;;;;0.32;0.32;;;;;;;13.71;55.41;101089.56;5063038;28;20082;-77
2022/04/25 03:03:34;;;;;;;0.22;0.22;;;;;;;13.62;55.12;101081.81;5070650;28;20052;-77
2022/04/25 03:06:01;;;;;;;0.10;0.10;;;;;;;13.63;55.90;101078.25;5063923;28;20550;-77
2022/04/25 03:08:28;;;;;;;0.10;0.10;;;;;;;13.62;55.73;101077.38;5059775;28;20041;-77
2022/04/25 03:10:56;;;;;;;0.00;0.00;;;;;;;13.64;55.00;101080.00;5062613;28;20036;-77
2022/04/25 03:13:24;;;;;;;0.10;0.10;;;;;;;13.65;55.28;101076.41;5067195;28;20450;-77
2022/04/25 03:15:51;;;;;;;0.00;0.00;;;;;;;13.59;55.87;101081.00;5066788;28;20032;-77
2022/04/25 03:18:19;;;;;;;0.20;0.20;;;;;;;13.53;55.48;101075.88;5068228;28;20028;-77
2022/04/25 03:20:48;;;;;;;0.38;0.38;;;;;;;13.53;54.59;101078.53;5059514;28;20025;-77
2022/04/25 03:23:15;;;;;;;0.00;0.00;;;;;;;13.50;54.90;101073.28;5060198;28;20527;-77
2022/04/25 03:25:41;;;;;;;0.00;0.00;;;;;;;13.52;55.03;101078.53;5059202;28;20510;-77
2022/04/25 03:28:08;;;;;;;0.20;0.20;;;;;;;13.49;54.70;101074.19;5063470;28;20029;-77
2022/04/25 03:30:34;;;;;;;0.10;0.10;;;;;;;13.49;54.86;101081.31;5083273;28;20588;-77
2022/04/25 03:33:01;;;;;;;0.20;0.20;;;;;;;13.47;54.96;101067.16;5070069;28;20584;-77
2022/04/25 03:35:27;;;;;;;0.10;0.10;;;;;;;13.47;54.69;101069.81;5059597;28;20025;-77
2022/04/25 03:37:54;;;;;;;0.00;0.00;;;;;;;13.43;54.86;101082.34;5063438;28;20551;-77
2022/04/25 03:40:20;;;;;;;0.32;0.32;;;;;;;13.35;54.62;101079.88;5060518;28;20501;-77
2022/04/25 03:42:47;;;;;;;0.80;0.80;;;;;;;13.35;55.25;101076.34;5058951;28;20510;-77
2022/04/25 03:45:16;;;;;;;0.85;0.85;;;;;;;13.24;55.48;101072.16;5072458;28;20078;-77
2022/04/25 03:47:43;;;;;;;0.10;0.10;;;;;;;13.20;55.46;101081.16;5068329;28;20032;-77
2022/04/25 03:50:10;;;;;;;0.20;0.20;;;;;;;13.08;55.58;101079.72;5058860;28;20135;-77
2022/04/25 03:52:37;;;;;;;0.03;0.03;;;;;;;13.01;56.33;101082.56;5056551;28;20120;-77
2022/04/25 03:57:52;;;;;;;0.00;0.00;;;;;;;12.84;56.73;101085.69;5067892;28;20054;-77
2022/04/25 04:00:19;;;;;;;0.10;0.10;;;;;;;12.79;58.36;101091.09;5073955;28;20405;-77
2022/04/25 04:02:46;;;;;;;0.88;0.88;;;;;;;12.76;59.38;101092.06;5073015;28;20071;-77
2022/04/25 04:05:13;;;;;;;0.00;0.00;;;;;;;12.76;59.08;101088.50;5062202;28;20036;-77
2022/04/25 04:07:39;;;;;;;0.10;0.10;;;;;;;12.76;59.72;101088.50;5070462;28;20028;-77
2022/04/25 04:10:06;;;;;;;0.10;0.10;;;;;;;12.77;59.70;101093.81;5074459;28;20046;-77
2022/04/25 04:12:34;;;;;;;0.00;0.00;;;;;;;12.76;58.78;101097.38;5074542;28;20028;-77
2022/04/25 04:15:02;;;;;;;0.10;0.10;;;;;;;12.75;58.56;101102.75;5064423;28;20025;-77
2022/04/25 04:17:29;;;;;;;0.00;0.00;;;;;;;12.75;58.30;101090.31;5069089;28;20448;-77
2022/04/25 04:19:55;;;;;;;0.10;0.10;;;;;;;12.74;57.56;101093.00;5055887;28;20052;-78
2022/04/25 04:22:22;;;;;;;0.20;0.20;;;;;;;12.73;58.27;101100.09;5061693;28;20036;-76
2022/04/25 04:24:49;;;;;;;0.10;0.10;;;;;;;12.73;58.14;101099.22;5069535;28;20031;-76
2022/04/25 04:27:16;;;;;;;0.00;0.00;;;;;;;12.72;57.65;101094.81;5071141;28;20122;-76
2022/04/25 04:29:42;;;;;;;0.35;0.35;;;;;;;12.73;57.49;101099.22;5068502;28;20036;-76
2022/04/25 04:32:09;;;;;;;0.00;0.00;;;;;;;12.75;59.02;101105.41;5057269;28;20067;-76
2022/04/25 04:34:36;;;;;;;0.00;0.00;;;;;;;12.76;57.79;101096.47;5061001;28;20112;-76
2022/04/25 04:37:03;;;;;;;0.10;0.10;;;;;;;12.81;57.95;101107.91;5061450;28;20116;-76
2022/04/25 04:39:31;;;;;;;0.85;0.82;;;;;;;12.82;58.06;101111.41;5070208;28;20028;-76
2022/04/25 04:41:57;;;;;;;0.10;0.10;;;;;;;12.83;58.33;101118.50;5087841;28;20024;-76
2022/04/25 04:44:23;;;;;;;0.05;0.05;;;;;;;12.89;57.98;101118.34;5072348;28;20028;-76
2022/04/25 04:46:50;;;;;;;0.05;0.05;;;;;;;12.93;57.09;101122.66;5053481;22;20076;-77
2022/04/25 04:49:16;;;;;;;0.00;0.00;;;;;;;12.91;57.07;101113.84;5029772;28;20057;-77
2022/04/25 04:51:43;;;;;;;0.10;0.10;;;;;;;12.94;57.44;101129.72;5028647;28;20033;-77
2022/04/25 04:54:09;;;;;;;0.20;0.20;;;;;;;12.93;57.45;101131.53;5043958;28;20482;-77
2022/04/25 04:56:36;;;;;;;0.00;0.00;;;;;;;12.90;57.85;101131.59;5034233;28;20038;-77
2022/04/25 04:59:03;;;;;;;0.15;0.15;;;;;;;12.92;58.56;101132.44;5037158;28;20033;-77
2022/04/25 05:01:29;;;;;;;0.17;0.17;;;;;;;12.86;57.01;101142.34;5033506;28;20029;-77
2022/04/25 05:03:59;;;;;;;0.00;0.00;;;;;;;12.84;58.85;101141.53;5037409;28;20087;-77
2022/04/25 05:06:27;;;;;;;0.63;0.63;;;;;;;12.82;58.20;101149.50;5033277;28;20043;-78
2022/04/25 05:08:54;;;;;;;0.47;0.47;;;;;;;12.79;58.94;101149.59;5042420;28;20024;-78
2022/04/25 05:11:20;;;;;;;0.98;0.95;;;;;;;12.80;57.73;101146.03;5046359;28;20171;-77
2022/04/25 05:13:47;;;;;;;0.90;0.77;;;;;;;12.79;58.42;101149.59;5040657;28;20029;-77
2022/04/25 05:16:13;;;;;;;0.10;0.10;;;;;;;12.79;58.79;101161.09;5041936;28;20045;-77
2022/04/25 05:18:39;;;;;;;0.00;0.00;;;;;;;12.82;57.73;101160.16;5043546;28;20046;-77
2022/04/25 05:21:05;;;;;;;0.10;0.10;;;;;;;12.84;57.77;101155.69;5041543;28;20115;-78
2022/04/25 05:23:32;;;;;;;0.10;0.10;;;;;;;12.84;58.58;101158.34;5051239;28;20032;-77
2022/04/25 05:25:58;;;;;;;0.38;0.38;;;;;;;12.84;59.46;101158.34;5056023;28;20389;-77
2022/04/25 05:28:25;;;;;;;0.10;0.10;;;;;;;12.85;59.17;101160.09;5043001;28;20110;-78
2022/04/25 05:30:51;;;;;;;0.00;0.00;;;;;;;12.89;59.16;101159.09;5047362;28;20028;-77
2022/04/25 05:33:18;;;;;;;0.05;0.05;;;;;;;12.94;59.90;101159.84;5048247;28;20031;-77
2022/04/25 05:35:45;;;;;;;0.00;0.00;;;;;;;12.97;59.73;101158.88;5046184;28;20033;-78
2022/04/25 05:38:12;;;;;;;0.10;0.10;;;;;;;13.01;58.64;101157.03;5044002;28;20031;-77
2022/04/25 05:40:39;;;;;;;0.20;0.20;;;;;;;12.98;58.28;101167.75;5040413;28;20444;-77
2022/04/25 05:43:07;;;;;;;0.32;0.32;;;;;;;12.97;58.44;101163.34;5038784;28;20048;-77
2022/04/25 05:45:33;;;;;;;0.40;0.40;;;;;;;12.92;59.24;101168.78;5044986;28;20033;-77
2022/04/25 05:48:00;;;;;;;0.57;0.57;;;;;;;12.90;59.16;101174.13;5044823;28;20122;-77
2022/04/25 05:53:16;;;;;;;0.80;0.32;;;;;;;12.89;58.34;101182.16;5035879;28;20052;-77
2022/04/25 05:55:42;;;;;;;0.10;0.10;;;;;;;12.91;59.13;101186.53;5028574;28;20404;-78
2022/04/25 05:58:08;;;;;;;2.08;0.80;;;;;;;12.93;60.09;101187.38;5030855;28;20399;-77
2022/04/25 06:00:35;;;;;;;1.10;1.10;;;;;;;13.07;59.38;101195.00;5040702;28;20128;-77
2022/04/25 06:03:02;;;;;;;0.03;0.03;;;;;;;13.09;59.55;101195.81;5048681;28;20089;-78
2022/04/25 06:05:28;;;;;;;2.95;1.02;;;;;;;13.14;59.38;101187.75;5049302;28;20036;-78
2022/04/25 06:07:56;;;;;;;0.10;0.10;;;;;;;13.23;58.79;101190.19;5044979;28;20031;-77
2022/04/25 06:10:25;;;;;;;0.45;0.45;;;;;;;13.31;58.42;101200.63;5038462;28;20067;-78
2022/04/25 06:12:53;;;;;;;0.08;0.08;;;;;;;13.36;59.26;101197.84;5053799;28;20346;-77
2022/04/25 06:15:21;;;;;;;0.10;0.10;;;;;;;13.45;57.68;101202.09;5042291;28;20029;-77
2022/04/25 06:17:48;;;;;;;1.20;1.05;;;;;;;13.47;58.78;101205.56;5049794;28;20040;-78
2022/04/25 06:20:14;;;;;;;0.00;0.00;;;;;;;13.55;58.00;101204.44;5045588;28;20032;-78
2022/04/25 06:22:51;;;;;;;0.80;0.80;;;;;;;13.60;58.34;101212.31;5045925;28;20040;-78
2022/04/25 06:25:17;;;;;;;0.10;0.10;;;;;;;13.64;57.93;101207.78;5047732;28;20087;-79
2022/04/25 06:27:43;;;;;;;0.00;0.00;;;;;;;13.60;57.67;101207.00;5051926;28;20072;-78
2022/04/25 06:30:09;;;;;;;0.10;0.10;;;;;;;13.61;57.80;101213.19;5043096;28;20052;-78
2022/04/25 06:32:36;;;;;;;0.28;0.28;;;;;;;13.57;57.44;101217.72;5042316;28;20484;-78
2022/04/25 06:35:03;;;;;;;0.85;0.85;;;;;;;13.54;56.95;101215.16;5046169;28;20566;-76
2022/04/25 06:37:29;;;;;;;3.08;1.00;;;;;;;13.49;57.78;101215.25;5045120;28;20036;-77
2022/04/25 06:39:55;;;;;;;1.08;1.08;;;;;;;13.46;58.90;101220.69;5050721;28;20033;-77
2022/04/25 06:42:21;;;;;;;3.35;1.52;;;;;;;13.45;58.74;101221.59;5058104;28;20033;-77
2022/04/25 06:44:48;;;;;;;0.10;0.10;;;;;;;13.44;57.66;101225.16;5053231;28;20083;-77
2022/04/25 06:47:14;;;;;;;0.10;0.10;;;;;;;13.43;58.12;101228.72;5060142;28;20087;-77
2022/04/25 06:49:40;;;;;;;0.10;0.10;;;;;;;13.48;58.02;101224.16;5055633;28;20037;-78
2022/04/25 06:52:08;;;;;;;0.00;0.00;;;;;;;13.40;58.36;101228.81;5056579;28;20163;-77
2022/04/25 06:54:35;;;;;;;0.40;0.40;;;;;;;13.39;58.52;101229.72;5056012;28;20051;-77
2022/04/25 06:57:02;;;;;;;0.05;0.05;;;;;;;13.33;58.62;101229.84;5048384;28;20040;-77
2022/04/25 06:59:29;;;;;;;0.00;0.00;;;;;;;13.27;58.87;101226.44;5050158;28;20399;-77
2022/04/25 07:01:55;;;;;;;0.82;0.82;;;;;;;13.22;58.36;101232.78;5050224;28;20037;-77
2022/04/25 07:04:23;;;;;;;0.08;0.08;;;;;;;13.12;59.46;101237.44;5045418;28;20386;-76
2022/04/25 07:06:49;;;;;;;0.13;0.13;;;;;;;13.12;58.78;101232.13;5043120;28;20035;-76
2022/04/25 07:09:15;;;;;;;0.00;0.00;;;;;;;13.06;60.58;101237.59;5041653;28;20029;-76
2022/04/25 07:11:43;;;;;;;0.80;0.80;;;;;;;13.00;62.32;101232.44;5041418;28;20025;-77
2022/04/25 07:14:16;;;;;;;0.20;0.20;;;;;;;12.95;62.76;101236.06;5043961;28;20053;-76
2022/04/25 07:16:45;;;;;;;0.65;0.28;;;;;;;12.94;61.95;101234.31;5052819;28;20060;-76
2022/04/25 07:19:12;;;;;;;0.08;0.08;;;;;;;12.91;61.03;101234.41;5049840;28;20024;-77
2022/04/25 07:29:56;;;;;;;0.00;0.00;;;;;;;12.78;61.06;101243.56;5044865;28;20044;-77
2022/04/25 07:32:23;;;;;;;0.10;0.10;;;;;;;12.75;60.15;101243.66;5048514;28;20127;-76
2022/04/25 07:34:49;;;;;;;0.10;0.10;;;;;;;12.71;61.64;101237.53;5039089;28;20759;-76
2022/04/25 07:37:17;;;;;;;0.40;0.40;;;;;;;12.77;61.55;101236.50;5039165;28;20087;-76
2022/04/25 07:39:45;;;;;;;0.30;0.30;;;;;;;12.77;62.90;101252.44;5044851;28;20481;-77
2022/04/25 07:42:12;;;;;;;0.00;0.00;;;;;;;12.82;62.92;101250.56;5047001;28;20243;-77
2022/04/25 07:44:38;;;;;;;0.10;0.10;;;;;;;12.82;61.71;101255.00;5041351;28;20075;-77
2022/04/25 07:47:05;;;;;;;0.20;0.20;;;;;;;12.81;61.21;101256.81;5046788;28;20076;-76
2022/04/25 07:49:33;;;;;;;0.47;0.45;;;;;;;12.80;61.82;101255.06;5047930;28;20033;-77
2022/04/25 07:51:59;;;;;;;0.10;0.10;;;;;;;12.78;61.75;101255.09;5047141;28;20090;-78
2022/04/25 07:54:26;;;;;;;0.10;0.10;;;;;;;12.75;61.80;101260.47;5049251;28;20640;-77
2022/04/25 07:56:52;;;;;;;0.10;0.10;;;;;;;12.75;61.78;101260.47;5049349;28;20104;-77
2022/04/25 07:59:19;;;;;;;0.15;0.15;;;;;;;12.76;61.84;101264.88;5048265;28;20029;-78
2022/04/25 08:01:45;;;;;;;0.03;0.03;;;;;;;12.74;61.91;101263.16;5046760;28;20483;-78
2022/04/25 08:04:12;;;;;;;0.03;0.03;;;;;;;12.73;61.07;101269.38;5048499;28;20067;-78
2022/04/25 08:06:38;;;;;;;0.10;0.10;;;;;;;12.73;61.09;101272.06;5043401;28;20029;-81
2022/04/25 08:09:05;;;;;;;0.10;0.10;;;;;;;12.71;61.01;101274.75;5049059;28;20407;-80
2022/04/25 08:11:32;;;;;;;1.30;0.90;;;;;;;12.71;61.61;101273.84;5051117;28;20032;-81
2022/04/25 08:19:31;;;;;;;0.10;0.10;;;;;;;12.64;61.73;101288.22;5037526;28;20102;-77
2022/04/25 08:21:57;;;;;;;0.28;0.28;;;;;;;12.62;62.54;101285.56;5043536;28;20040;-76
2022/04/25 08:24:24;;;;;;;0.40;0.40;;;;;;;12.70;62.37;101288.94;5042140;28;20112;-78
2022/04/25 08:26:50;;;;;;;0.20;0.20;;;;;;;12.77;62.26;101289.69;5044448;28;20462;-77
2022/04/25 08:29:16;;;;;;;3.53;0.75;;;;;;;12.83;61.48;101286.03;5045490;28;20035;-77
2022/04/25 08:31:42;;;;;;;0.10;0.10;;;;;;;12.86;62.12;101284.16;5043926;28;20060;-77
2022/04/25 08:34:09;;;;;;;0.15;0.15;;;;;;;12.88;62.26;101286.78;5043416;28;20671;-77
2022/04/25 08:36:36;;;;;;;0.10;0.10;;;;;;;12.95;61.98;101289.25;5044119;28;20052;-77
2022/04/25 08:39:03;;;;;;;0.20;0.20;;;;;;;13.00;62.54;101291.81;5046013;28;20029;-78
2022/04/25 08:41:36;;;;;;;0.00;0.00;;;;;;;13.06;63.29;101296.13;5045915;28;20025;-78
2022/04/25 08:44:05;;;;;;;0.10;0.10;;;;;;;13.16;63.04;101294.13;5048018;28;20085;-79
2022/04/25 08:46:33;;;;;;;0.03;0.03;;;;;;;13.22;63.34;101292.22;5050079;28;20117;-77
2022/04/25 08:49:03;;;;;;;0.52;0.52;;;;;;;13.27;62.01;101290.31;5048218;28;20028;-78
2022/04/25 08:51:30;;;;;;;0.30;0.30;;;;;;;13.31;62.03;101292.88;5041486;28;20033;-78
2022/04/25 08:53:58;;;;;;;0.25;0.25;;;;;;;13.34;62.03;101296.34;5042040;28;20047;-78
2022/04/25 08:56:26;;;;;;;0.10;0.10;;;;;;;13.41;62.11;101297.13;5046245;28;20399;-78
2022/04/25 08:58:54;;;;;;;0.10;0.10;;;;;;;13.47;61.21;101307.63;5042642;28;20411;-76
2022/04/25 09:01:21;;;;;;;0.10;0.10;;;;;;;13.48;61.87;101304.00;5041852;28;20438;-78
2022/04/25 09:03:48;;;;;;;0.10;0.10;;;;;;;13.53;61.56;101304.81;5044797;28;20090;-77
2022/04/25 09:06:14;;;;;;;0.40;0.40;;;;;;;13.58;60.85;101304.66;5047897;28;20052;-78
2022/04/25 09:08:42;;;;;;;1.40;1.23;;;;;;;13.62;62.03;101313.44;5043144;28;20040;-78
2022/04/25 09:13:55;;;;;;;0.00;0.00;;;;;;;13.67;61.54;101314.22;5047016;28;20043;-77
2022/04/25 09:16:21;;;;;;;0.05;0.05;;;;;;;13.63;61.11;101313.41;5039094;28;20090;-77
2022/04/25 09:18:47;;;;;;;0.10;0.10;;;;;;;13.62;61.83;101324.09;5035288;28;20024;-75
2022/04/25 09:21:14;;;;;;;0.00;0.00;;;;;;;13.64;61.93;101330.28;5043622;28;20025;-76
2022/04/25 09:23:41;;;;;;;0.30;0.30;;;;;;;13.69;63.96;101334.56;5037386;28;20044;-77
2022/04/25 09:28:49;;;;;;;0.20;0.20;;;;;;;13.84;63.18;101343.09;5145482;27;96333;-77
2022/04/25 09:31:17;;;;;;;0.47;0.30;;;;;;;13.86;62.72;101347.44;5120823;27;20024;-77
2022/04/25 09:33:44;;;;;;;0.13;0.13;;;;;;;13.87;63.48;101343.88;5113989;27;20137;-77
2022/04/25 09:36:10;;;;;;;0.20;0.20;;;;;;;13.95;62.65;101348.16;5102764;28;20069;-76
2022/04/25 09:38:39;;;;;;;0.10;0.10;;;;;;;14.01;62.36;101355.97;5114544;28;20027;-77
2022/04/25 09:41:09;;;;;;;0.00;0.00;;;;;;;14.03;62.14;101354.13;5102163;28;20036;-77
2022/04/25 09:43:38;;;;;;;0.20;0.20;;;;;;;14.02;62.40;101363.06;5103013;28;20065;-76
2022/04/25 09:46:15;;;;;;;0.10;0.10;;;;;;;14.01;62.64;101361.31;5102065;28;20060;-76
2022/04/25 09:49:01;;;;;;;0.20;0.20;;;;;;;14.05;62.02;101358.50;5103140;28;20031;-77
2022/04/25 09:51:28;;;;;;;0.00;0.00;;;;;;;13.96;62.35;101358.75;5096739;28;20089;-77
2022/04/25 09:53:55;;;;;;;1.25;0.73;;;;;;;13.93;62.63;101355.28;5101318;28;20436;-77
2022/04/25 09:56:24;;;;;;;0.10;0.10;;;;;;;13.90;61.91;101359.78;5106520;28;20050;-77
2022/04/25 09:59:03;;;;;;;0.13;0.13;;;;;;;13.90;62.21;101362.44;5105144;28;20062;-77
2022/04/25 10:01:33;;;;;;;0.10;0.10;;;;;;;13.81;62.70;101359.16;5108547;28;20015;-78
2022/04/25 10:03:59;;;;;;;0.10;0.10;;;;;;;13.79;61.80;101361.84;5109652;27;20486;-78
2022/04/25 10:06:30;;;;;;;0.17;0.17;;;;;;;13.74;62.42;101369.97;5125706;28;20106;-77
2022/04/25 10:08:59;;;;;;;0.00;0.00;;;;;;;13.74;63.12;101364.63;5116304;27;20039;-77
2022/04/25 10:11:28;;;;;;;0.82;0.82;;;;;;;13.74;62.78;101369.97;5104893;28;20062;-77
2022/04/25 10:13:55;;;;;;;0.00;0.00;;;;;;;13.74;63.30;101374.41;5107029;28;20055;-78
2022/04/25 10:16:21;;;;;;;0.00;0.00;;;;;;;13.77;63.47;101379.66;5103861;28;20124;-77
2022/04/25 10:18:48;;;;;;;2.45;1.60;;;;;;;13.81;63.70;101369.81;5098809;28;20482;-77
2022/04/25 10:21:14;;;;;;;0.00;0.00;;;;;;;13.81;63.22;101376.00;5099930;28;20493;-77
2022/04/25 10:23:43;;;;;;;0.08;0.08;;;;;;;13.83;63.35;101383.94;5103662;28;20032;-78
2022/04/25 10:26:10;;;;;;;0.05;0.05;;;;;;;13.84;63.57;101381.22;5100228;28;20084;-77
2022/04/25 10:31:23;;;;;;;0.00;0.00;;;;;;;13.94;63.42;101381.88;5114457;27;20209;-78
2022/04/25 10:36:43;;;;;;;0.10;0.10;;;;;;;13.96;62.11;101384.53;5119092;27;789692;-78
2022/04/25 10:39:27;;;;;;;0.75;0.75;;;;;;;13.95;62.59;101385.44;5136436;27;20033;-78
2022/04/25 10:52:51;;;;;;;3.65;0.57;;;;;;;13.80;62.37;101406.22;5092984;27;20574;-75
2022/04/25 10:55:23;;;;;;;0.10;0.10;;;;;;;13.68;62.50;101407.41;5017200;28;20056;-76
2022/04/25 11:00:45;;;;;;;0.00;0.00;;;;;;;13.54;61.82;101410.34;5123618;27;20211;-76
2022/04/25 11:03:17;;;;;;;0.10;0.10;;;;;;;13.51;61.74;101414.91;5108376;28;20028;-74
2022/04/25 11:13:56;;;;;;;0.45;0.45;;;;;;;13.76;61.93;101420.50;5114331;27;20157;-76
2022/04/25 11:16:26;;;;;;;0.10;0.10;;;;;;;13.83;62.36;101426.56;5088234;28;20410;-75
2022/04/25 11:19:16;;;;;;;0.57;0.57;;;;;;;14.01;61.77;101435.91;5087797;28;20032;-74
2022/04/25 11:21:49;;;;;;;0.10;0.10;;;;;;;13.99;61.21;101438.59;5087257;28;20032;-74
2022/04/25 11:24:33;;;;;;;0.75;0.75;;;;;;;14.15;61.01;101436.41;5088352;28;20035;-76
2022/04/25 11:27:01;;;;;;;0.47;0.47;;;;;;;14.16;60.59;101430.16;5083665;28;20402;-75
2022/04/25 11:29:28;;;;;;;0.75;0.55;;;;;;;14.26;61.33;101429.94;5072206;28;20021;-77
2022/04/25 11:32:35;;;;;;;0.75;0.75;;;;;;;14.55;61.24;101427.38;5077331;28;20020;-75
2022/04/25 11:35:02;;;;;;;0.20;0.20;;;;;;;14.77;61.17;101425.94;5068041;28;20114;-75
2022/04/25 11:37:30;;;;;;;5.45;0.90;;;;;;;14.97;59.37;101433.38;5067363;28;20029;-75
2022/04/25 11:39:58;;;;;;;0.20;0.20;;;;;;;15.13;58.11;101432.00;5067731;28;20037;-74
2022/04/25 11:42:30;;;;;;;0.38;0.38;;;;;;;15.39;59.67;101430.34;5066441;28;20025;-74
2022/04/25 11:44:57;;;;;;;0.25;0.25;;;;;;;15.55;58.31;101419.19;5068000;28;20025;-77
2022/04/25 11:47:26;;;;;;;0.10;0.10;;;;;;;15.64;57.25;101430.44;5067584;28;20078;-76
2022/04/25 11:50:00;;;;;;;0.20;0.20;;;;;;;15.74;57.75;101430.13;5067723;28;20032;-74
2022/04/25 11:52:26;;;;;;;0.10;0.10;;;;;;;15.72;57.82;101432.00;5066713;28;20044;-76
2022/04/25 11:54:54;;;;;;;0.17;0.17;;;;;;;15.67;57.45;101429.47;5066814;28;20040;-75
2022/04/25 11:57:20;;;;;;;0.10;0.10;;;;;;;15.62;56.34;101434.09;5067096;28;20123;-76
2022/04/25 11:59:47;;;;;;;0.00;0.00;;;;;;;15.50;55.73;101444.25;5067091;28;20043;-76
2022/04/25 12:02:13;;;;;;;0.55;0.55;;;;;;;15.47;57.56;101447.00;5067082;28;20059;-75
2022/04/25 12:04:41;;;;;;;0.30;0.30;;;;;;;15.38;57.22;101444.63;5066871;28;20056;-73
2022/04/25 12:07:10;;;;;;;3.25;1.58;;;;;;;15.32;56.71;101452.81;5066859;28;20025;-75
2022/04/25 12:15:55;;;;;;;0.40;0.40;;;;;;;15.29;56.24;101451.09;5069237;28;20032;-75
2022/04/25 12:21:09;;;;;;;0.10;0.10;;;;;;;15.62;57.29;101445.63;5128862;27;20375;-74
2022/04/25 12:23:39;;;;;;;0.80;0.80;;;;;;;15.70;56.43;101445.38;5086090;28;20028;-75
2022/04/25 12:26:08;;;;;;;0.00;0.00;;;;;;;15.85;55.20;101446.75;5086547;28;20440;-75
2022/04/25 12:28:37;;;;;;;0.50;0.50;;;;;;;16.05;55.08;101445.19;5087790;28;20031;-75
2022/04/25 12:33:43;;;;;;;0.45;0.45;;;;;;;16.15;53.49;101449.34;5109853;27;20592;-75
2022/04/25 12:36:22;;;;;;;0.22;0.22;;;;;;;16.09;53.22;101453.06;5067988;28;20085;-74